Time;durP1;ratioP1;P1;durP2;ratioP2;P2;SDS_P1;SDS_P2;PMS_P1;PMS_P2;Temp;Humidity;BMP_temperature;BMP_pressure;BME280_temperature;BME280_humidity;BME280_pressure;Samples;Min_cycle;Max_cycle;Signal;HPM_P1;HPM_P2
2021/01/04 00:01:19;;;;;;;9.57;7.53;;;4.70;82.60;;;;;;5002551;28;20034;-82
2021/01/04 00:04:26;;;;;;;9.55;8.23;;;4.70;82.50;;;;;;5017133;28;20025;-82
2021/01/04 00:07:00;;;;;;;10.45;8.23;;;4.70;82.40;;;;;;4972259;28;20173;-82
2021/01/04 00:09:48;;;;;;;10.13;8.35;;;4.70;82.50;;;;;;5011901;28;20095;-82
2021/01/04 00:12:40;;;;;;;9.82;8.60;;;4.70;82.50;;;;;;5011632;28;20121;-82
2021/01/04 00:15:31;;;;;;;12.05;9.38;;;4.70;82.40;;;;;;5020926;28;20030;-82
2021/01/04 00:17:59;;;;;;;11.32;9.32;;;4.70;82.50;;;;;;5032335;28;20159;-82
2021/01/04 00:20:45;;;;;;;11.68;9.27;;;4.70;82.60;;;;;;5014355;28;20022;-82
2021/01/04 00:23:28;;;;;;;10.90;8.80;;;4.70;82.70;;;;;;5000718;28;20037;-82
2021/01/04 00:26:02;;;;;;;10.10;8.35;;;4.70;82.70;;;;;;5011804;28;20120;-82
2021/01/04 00:28:30;;;;;;;11.55;9.65;;;4.60;82.70;;;;;;5029074;28;20025;-82
2021/01/04 00:31:14;;;;;;;12.50;10.05;;;4.60;82.70;;;;;;5005176;28;20044;-82
2021/01/04 00:33:44;;;;;;;13.73;10.07;;;4.60;82.80;;;;;;5013949;28;20025;-82
2021/01/04 00:36:22;;;;;;;10.45;8.63;;;4.60;82.80;;;;;;5012664;28;20036;-82
2021/01/04 00:39:41;;;;;;;10.02;7.43;;;4.60;82.90;;;;;;5045531;23;20136;-89
2021/01/04 00:42:41;;;;;;;9.13;7.82;;;4.60;82.70;;;;;;4990981;28;20050;-89
2021/01/04 00:45:25;;;;;;;10.55;8.38;;;4.70;82.60;;;;;;5025475;28;20029;-90
2021/01/04 00:48:06;;;;;;;9.30;8.07;;;4.60;82.60;;;;;;5029241;28;20029;-89
2021/01/04 00:51:10;;;;;;;11.45;9.25;;;4.70;82.70;;;;;;5015203;28;20056;-89
2021/01/04 00:53:47;;;;;;;10.30;8.27;;;4.60;82.70;;;;;;5015116;28;20018;-89
2021/01/04 00:56:27;;;;;;;11.05;9.30;;;4.60;82.60;;;;;;5026991;28;20029;-90
2021/01/04 00:59:08;;;;;;;10.10;8.60;;;4.60;82.60;;;;;;5034851;28;20099;-89
2021/01/04 01:02:01;;;;;;;10.63;8.93;;;4.60;82.60;;;;;;5034384;28;20516;-89
2021/01/04 01:04:48;;;;;;;9.75;8.48;;;4.60;82.60;;;;;;5034443;28;20047;-89
2021/01/04 01:07:18;;;;;;;10.18;8.50;;;4.60;82.60;;;;;;5034083;28;20052;-89
2021/01/04 01:09:51;;;;;;;10.38;8.77;;;4.60;82.60;;;;;;5034348;28;20045;-89
2021/01/04 01:12:27;;;;;;;11.52;9.15;;;4.60;82.60;;;;;;5034099;28;20028;-89
2021/01/04 01:15:23;;;;;;;10.90;9.13;;;4.60;82.60;;;;;;5034222;28;20029;-89
2021/01/04 01:18:00;;;;;;;11.80;8.93;;;4.60;82.60;;;;;;5034083;28;20021;-89
2021/01/04 01:20:27;;;;;;;12.10;9.88;;;4.60;82.60;;;;;;5033748;28;20032;-89
2021/01/04 01:22:53;;;;;;;9.40;8.40;;;4.60;82.60;;;;;;5017601;28;20545;-89
2021/01/04 01:25:23;;;;;;;10.23;8.68;;;4.60;82.60;;;;;;5033706;28;20375;-89
2021/01/04 01:28:17;;;;;;;10.45;8.85;;;4.60;82.60;;;;;;5034056;28;20036;-90
2021/01/04 01:31:04;;;;;;;11.98;9.23;;;4.60;82.60;;;;;;5033873;28;20025;-89
2021/01/04 01:33:51;;;;;;;10.52;8.57;;;4.50;82.60;;;;;;5051974;28;20100;-89
2021/01/04 01:36:34;;;;;;;10.48;9.00;;;4.60;83.20;;;;;;5033245;28;20044;-89
2021/01/04 01:39:21;;;;;;;9.23;7.97;;;4.50;82.60;;;;;;5033700;28;20371;-89
2021/01/04 01:42:14;;;;;;;9.40;7.50;;;4.50;82.50;;;;;;5034073;28;20052;-89
2021/01/04 01:44:50;;;;;;;10.10;8.20;;;4.60;82.50;;;;;;5033739;28;20031;-89
2021/01/04 01:47:31;;;;;;;10.63;8.52;;;4.50;82.40;;;;;;5032965;28;20032;-89
2021/01/04 01:50:14;;;;;;;10.05;8.70;;;4.50;82.50;;;;;;5033339;28;20039;-89
2021/01/04 01:52:52;;;;;;;9.90;8.30;;;4.50;82.40;;;;;;5033991;28;20037;-89
2021/01/04 01:55:25;;;;;;;8.18;7.22;;;4.60;82.40;;;;;;5034087;28;20497;-90
2021/01/04 01:58:17;;;;;;;9.38;7.80;;;4.60;82.40;;;;;;5033521;28;20035;-89
2021/01/04 02:00:52;;;;;;;10.55;7.90;;;4.60;82.40;;;;;;5033412;28;20053;-89
2021/01/04 02:04:03;;;;;;;11.73;8.27;;;4.60;82.30;;;;;;5033348;28;20116;-89
2021/01/04 02:06:40;;;;;;;10.60;8.63;;;4.60;82.40;;;;;;5011911;28;20487;-89
2021/01/04 02:09:12;;;;;;;11.00;8.70;;;4.60;82.40;;;;;;5033720;28;20037;-89
2021/01/04 02:11:48;;;;;;;10.27;8.23;;;4.50;82.30;;;;;;5033927;28;20506;-89
2021/01/04 02:14:28;;;;;;;12.23;9.82;;;4.50;82.30;;;;;;5033290;28;20486;-89
2021/01/04 02:17:25;;;;;;;11.15;8.38;;;4.50;82.20;;;;;;5033102;28;20075;-89
2021/01/04 02:20:27;;;;;;;9.05;7.55;;;4.50;82.30;;;;;;5033218;28;20036;-89
2021/01/04 02:23:06;;;;;;;9.50;8.50;;;4.50;82.20;;;;;;5033980;28;20437;-89
2021/01/04 02:25:34;;;;;;;;;;;4.50;82.20;;;;;;5034033;28;20179;-89
2021/01/04 02:28:10;;;;;;;10.48;8.15;;;4.40;82.80;;;;;;5033725;28;19909;-89
2021/01/04 02:30:36;;;;;;;11.35;10.02;;;4.50;82.20;;;;;;5033754;28;20037;-89
2021/01/04 02:33:03;;;;;;;9.25;8.07;;;4.40;82.30;;;;;;5033579;28;20025;-89
2021/01/04 02:35:29;;;;;;;10.13;8.27;;;4.40;82.40;;;;;;5009636;28;20550;-89
2021/01/04 02:37:55;;;;;;;8.85;7.32;;;4.40;82.40;;;;;;5013138;28;20057;-89
2021/01/04 02:40:21;;;;;;;8.85;7.45;;;4.40;82.40;;;;;;5033285;28;20122;-89
2021/01/04 02:42:49;;;;;;;10.13;8.73;;;4.40;82.30;;;;;;5000793;28;20021;-89
2021/01/04 02:45:20;;;;;;;11.13;9.63;;;4.40;82.40;;;;;;5033214;28;20025;-89
2021/01/04 02:48:01;;;;;;;8.82;7.90;;;4.40;82.40;;;;;;5033733;28;20025;-89
2021/01/04 02:50:44;;;;;;;10.02;8.40;;;4.40;82.40;;;;;;5032883;28;20021;-89
2021/01/04 02:53:36;;;;;;;11.30;9.27;;;4.40;82.40;;;;;;5031985;28;20033;-89
2021/01/04 02:56:30;;;;;;;10.15;8.57;;;4.40;82.50;;;;;;5032496;28;20029;-89
2021/01/04 02:59:15;;;;;;;8.98;7.60;;;4.40;82.50;;;;;;5013116;28;20116;-89
2021/01/04 03:01:53;;;;;;;9.00;7.78;;;4.40;82.50;;;;;;5032099;28;20036;-90
2021/01/04 03:04:22;;;;;;;9.87;8.23;;;4.40;82.40;;;;;;5032866;28;20017;-89
2021/01/04 03:06:58;;;;;;;9.80;8.57;;;4.40;82.40;;;;;;5032683;28;20291;-89
2021/01/04 03:09:28;;;;;;;10.13;8.20;;;4.40;82.40;;;;;;5033215;28;20132;-89
2021/01/04 03:11:55;;;;;;;10.48;7.93;;;4.40;82.50;;;;;;5016793;28;20370;-90
2021/01/04 03:14:59;;;;;;;9.43;7.85;;;4.40;82.60;;;;;;5032433;28;20149;-89
2021/01/04 03:17:42;;;;;;;9.65;7.93;;;4.30;82.50;;;;;;4934747;29;20057;-89
2021/01/04 03:20:11;;;;;;;8.90;7.65;;;4.30;82.50;;;;;;5029769;28;20044;-89
2021/01/04 03:22:38;;;;;;;8.85;7.95;;;4.30;82.40;;;;;;5036898;28;20028;-89
2021/01/04 03:25:13;;;;;;;9.75;8.02;;;4.30;82.40;;;;;;5036591;28;20033;-89
2021/01/04 03:27:41;;;;;;;9.80;8.30;;;4.40;82.40;;;;;;5021563;28;20033;-89
2021/01/04 03:30:08;;;;;;;9.98;8.20;;;4.40;82.40;;;;;;5036586;28;20131;-89
2021/01/04 03:32:33;;;;;;;9.95;8.18;;;4.30;82.30;;;;;;5019895;28;20044;-89
2021/01/04 03:34:59;;;;;;;9.60;8.50;;;4.30;82.30;;;;;;5020073;28;20025;-89
2021/01/04 03:37:25;;;;;;;11.02;8.82;;;4.30;82.30;;;;;;5036011;28;20020;-89
2021/01/04 03:39:50;;;;;;;10.23;8.45;;;4.30;82.30;;;;;;5003377;28;20479;-89
2021/01/04 03:42:16;;;;;;;9.02;8.00;;;4.30;82.30;;;;;;5019376;28;20039;-89
2021/01/04 03:44:41;;;;;;;11.82;10.23;;;4.30;82.30;;;;;;5054127;28;20020;-89
2021/01/04 03:47:07;;;;;;;9.55;8.20;;;4.30;82.20;;;;;;5003459;28;20127;-89
2021/01/04 03:49:33;;;;;;;10.95;9.18;;;4.30;82.20;;;;;;5019684;28;20039;-89
2021/01/04 03:52:00;;;;;;;9.32;8.32;;;4.30;82.30;;;;;;5003628;28;20053;-89
2021/01/04 03:54:26;;;;;;;8.73;7.72;;;4.30;82.90;;;;;;5035500;28;20041;-89
2021/01/04 03:56:55;;;;;;;10.80;8.77;;;4.30;82.30;;;;;;5036094;28;20036;-89
2021/01/04 03:59:22;;;;;;;10.00;8.20;;;4.30;82.20;;;;;;5035754;28;20024;-89
2021/01/04 04:01:51;;;;;;;9.48;8.38;;;4.30;82.30;;;;;;5035409;28;20075;-89
2021/01/04 04:04:17;;;;;;;8.82;7.78;;;4.40;82.30;;;;;;5019443;28;20021;-89
2021/01/04 04:06:43;;;;;;;9.23;7.65;;;4.40;82.20;;;;;;5035710;28;20032;-89
2021/01/04 04:09:10;;;;;;;8.43;7.43;;;4.40;82.20;;;;;;5003104;28;20036;-89
2021/01/04 04:11:36;;;;;;;9.70;8.32;;;4.40;82.20;;;;;;5019176;28;20032;-89
2021/01/04 04:14:02;;;;;;;8.95;8.05;;;4.40;82.20;;;;;;5019229;28;20114;-89
2021/01/04 04:16:28;;;;;;;10.45;8.50;;;4.40;82.10;;;;;;5035829;28;20056;-88
2021/01/04 04:18:53;;;;;;;10.35;8.40;;;4.40;82.20;;;;;;5002636;28;20037;-89
2021/01/04 04:21:19;;;;;;;11.52;8.65;;;4.40;82.20;;;;;;5019266;28;20025;-89
2021/01/04 04:23:44;;;;;;;9.15;7.85;;;4.30;82.20;;;;;;5035787;28;20116;-89
2021/01/04 04:26:23;;;;;;;10.15;7.97;;;4.40;82.20;;;;;;5002883;28;20162;-89
2021/01/04 04:28:50;;;;;;;10.63;8.63;;;4.40;82.10;;;;;;5035427;28;20036;-89
2021/01/04 04:31:15;;;;;;;10.20;9.10;;;4.40;82.10;;;;;;5035171;28;20040;-89
2021/01/04 04:33:42;;;;;;;11.00;8.38;;;4.40;82.10;;;;;;5018662;28;20037;-89
2021/01/04 04:36:09;;;;;;;10.18;9.07;;;4.40;82.10;;;;;;5035511;28;20442;-89
2021/01/04 04:38:35;;;;;;;11.07;9.27;;;4.40;82.10;;;;;;5034091;28;20053;-89
2021/01/04 04:41:01;;;;;;;10.45;9.02;;;4.40;82.10;;;;;;5018892;28;20500;-89
2021/01/04 04:43:44;;;;;;;11.23;9.60;;;4.40;82.20;;;;;;5034903;28;20035;-89
2021/01/04 04:46:24;;;;;;;11.18;9.88;;;4.40;82.20;;;;;;5035230;28;20450;-89
2021/01/04 04:48:53;;;;;;;10.75;9.52;;;4.40;82.10;;;;;;5035396;28;20467;-89
2021/01/04 04:51:27;;;;;;;10.60;9.10;;;4.40;82.10;;;;;;5034519;28;20536;-89
2021/01/04 04:54:07;;;;;;;10.25;8.32;;;4.40;82.10;;;;;;5052036;28;20037;-89
2021/01/04 04:56:48;;;;;;;11.13;9.18;;;4.40;82.10;;;;;;5035033;28;20032;-89
2021/01/04 04:59:21;;;;;;;11.93;10.18;;;4.40;82.10;;;;;;5034880;28;20035;-89
2021/01/04 05:02:12;;;;;;;10.98;9.77;;;4.40;82.10;;;;;;5034497;28;20032;-89
2021/01/04 05:05:15;;;;;;;12.20;10.63;;;4.40;82.00;;;;;;5034055;28;20447;-90
2021/01/04 05:07:46;;;;;;;12.15;8.88;;;4.40;82.10;;;;;;5052075;28;20033;-89
2021/01/04 05:10:27;;;;;;;9.77;8.75;;;4.40;82.10;;;;;;5034944;28;20124;-89
2021/01/04 05:12:56;;;;;;;11.73;10.30;;;4.40;82.10;;;;;;5034722;28;20036;-89
2021/01/04 05:15:33;;;;;;;11.27;9.52;;;4.30;82.10;;;;;;5034359;28;20035;-89
2021/01/04 05:18:18;;;;;;;13.07;10.57;;;4.30;82.10;;;;;;5034333;28;20029;-89
2021/01/04 05:21:24;;;;;;;10.27;8.93;;;4.30;82.10;;;;;;5034677;28;20025;-89
2021/01/04 05:24:48;;;;;;;11.00;9.48;;;4.30;82.10;;;;;;5034775;28;20078;-89
2021/01/04 05:27:36;;;;;;;11.75;9.73;;;4.30;82.10;;;;;;4935990;29;20027;-89
2021/01/04 05:30:20;;;;;;;12.45;10.35;;;4.30;82.20;;;;;;4935510;29;20118;-89
2021/01/04 05:32:55;;;;;;;13.55;10.02;;;4.30;82.20;;;;;;5008745;28;20036;-89
2021/01/04 05:35:20;;;;;;;11.60;10.10;;;4.20;82.20;;;;;;5034219;28;20039;-89
2021/01/04 05:38:01;;;;;;;12.23;9.60;;;4.20;82.20;;;;;;5034012;28;20127;-89
2021/01/04 05:40:57;;;;;;;11.00;9.05;;;4.20;82.30;;;;;;5013855;28;20483;-89
2021/01/04 05:43:59;;;;;;;9.82;8.48;;;4.20;82.10;;;;;;5028111;28;20075;-89
2021/01/04 05:47:01;;;;;;;10.00;8.52;;;4.20;82.10;;;;;;5033422;28;20017;-89
2021/01/04 05:49:30;;;;;;;9.95;8.70;;;4.20;82.00;;;;;;5004907;28;20063;-89
2021/01/04 05:51:56;;;;;;;9.60;7.97;;;4.20;82.00;;;;;;5032148;28;20036;-89
2021/01/04 05:54:29;;;;;;;14.07;8.50;;;4.20;82.00;;;;;;5017431;28;20124;-89
2021/01/04 05:57:08;;;;;;;9.18;8.02;;;4.30;82.10;;;;;;5034328;28;20060;-89
2021/01/04 05:59:48;;;;;;;10.43;8.90;;;4.30;82.00;;;;;;5034382;28;20041;-87
2021/01/04 06:02:25;;;;;;;10.70;8.68;;;4.30;82.00;;;;;;5034674;28;20486;-87
2021/01/04 06:04:51;;;;;;;9.52;8.18;;;4.20;81.90;;;;;;5034501;28;20052;-89
2021/01/04 06:07:18;;;;;;;9.80;8.10;;;4.20;81.90;;;;;;5034834;28;20025;-88
2021/01/04 06:09:57;;;;;;;11.55;9.68;;;4.20;81.90;;;;;;5016341;28;20073;-88
2021/01/04 06:12:44;;;;;;;10.65;9.02;;;4.20;81.90;;;;;;5010853;28;20131;-88
2021/01/04 06:15:11;;;;;;;11.18;9.43;;;4.20;81.90;;;;;;5032902;28;20112;-87
2021/01/04 06:17:46;;;;;;;12.20;10.38;;;4.20;81.90;;;;;;5017696;28;20079;-87
2021/01/04 06:20:38;;;;;;;11.68;9.98;;;4.20;82.00;;;;;;5035219;28;20398;-87
2021/01/04 06:23:20;;;;;;;12.18;10.43;;;4.20;82.10;;;;;;5025394;28;20033;-87
2021/01/04 06:25:57;;;;;;;11.48;9.43;;;4.10;82.10;;;;;;5027192;28;20034;-87
2021/01/04 06:28:23;;;;;;;9.73;7.85;;;4.10;82.10;;;;;;5033031;28;20413;-86
2021/01/04 06:31:01;;;;;;;10.30;8.50;;;4.10;82.10;;;;;;5016663;28;20044;-87
2021/01/04 06:33:29;;;;;;;10.03;8.87;;;4.10;82.10;;;;;;5050367;28;20029;-87
2021/01/04 06:36:17;;;;;;;11.63;9.48;;;4.10;82.10;;;;;;5012471;28;20037;-87
2021/01/04 06:38:44;;;;;;;11.20;8.73;;;4.20;82.70;;;;;;5039900;23;20056;-93
2021/01/04 06:41:39;;;;;;;10.73;9.27;;;4.10;82.60;;;;;;5031249;28;20040;-92
2021/01/04 06:44:15;;;;;;;11.25;9.40;;;4.20;82.00;;;;;;5021620;28;20041;-93
2021/01/04 06:46:46;;;;;;;10.77;8.95;;;4.10;82.00;;;;;;5033856;28;20024;-92
2021/01/04 06:49:15;;;;;;;11.25;9.10;;;4.10;82.00;;;;;;5034341;28;20032;-92
2021/01/04 06:52:18;;;;;;;11.68;9.40;;;4.20;82.10;;;;;;5041122;28;20103;-91
2021/01/04 06:54:47;;;;;;;11.15;9.55;;;4.20;82.10;;;;;;5044799;28;20029;-88
2021/01/04 06:57:37;;;;;;;12.05;9.35;;;4.20;82.10;;;;;;5034602;28;20066;-90
2021/01/04 07:00:22;;;;;;;12.02;10.60;;;4.20;82.10;;;;;;5032251;28;20025;-90
2021/01/04 07:03:28;;;;;;;12.55;9.60;;;4.10;82.10;;;;;;5038579;28;20056;-89
2021/01/04 07:06:00;;;;;;;10.75;8.80;;;4.10;82.10;;;;;;5038232;28;20109;-89
2021/01/04 07:08:57;;;;;;;11.07;8.95;;;4.10;82.10;;;;;;5019677;28;20036;-89
2021/01/04 07:11:47;;;;;;;10.60;8.90;;;4.10;82.10;;;;;;5037523;28;20032;-89
2021/01/04 07:14:57;;;;;;;11.98;9.60;;;4.10;82.10;;;;;;5038219;28;20470;-89
2021/01/04 07:17:46;;;;;;;13.10;10.00;;;4.10;82.00;;;;;;5015417;28;20037;-90
2021/01/04 07:20:30;;;;;;;11.15;9.52;;;4.10;82.20;;;;;;5018321;28;20100;-91
2021/01/04 07:23:09;;;;;;;10.93;9.27;;;4.10;82.10;;;;;;5019539;28;20031;-93
2021/01/04 07:26:11;;;;;;;13.52;10.60;;;4.10;82.10;;;;;;5020265;28;20026;-93
2021/01/04 07:29:18;;;;;;;13.05;10.60;;;4.10;82.20;;;;;;5019960;28;20025;-93
2021/01/04 07:32:17;;;;;;;12.60;10.07;;;4.10;82.20;;;;;;4956635;29;20027;-93
2021/01/04 07:34:58;;;;;;;11.35;9.02;;;4.10;82.20;;;;;;4957196;29;20035;-93
2021/01/04 07:37:37;;;;;;;10.55;8.95;;;4.10;82.20;;;;;;5004978;28;20060;-93
2021/01/04 07:40:09;;;;;;;11.48;9.82;;;4.10;82.20;;;;;;5019935;28;20140;-93
2021/01/04 07:42:37;;;;;;;12.25;10.25;;;4.10;82.20;;;;;;5020133;28;20021;-93
2021/01/04 07:45:06;;;;;;;13.70;10.90;;;4.10;82.20;;;;;;5020119;28;20017;-93
2021/01/04 07:47:53;;;;;;;12.20;10.27;;;4.10;82.20;;;;;;5019887;28;20112;-93
2021/01/04 07:50:37;;;;;;;14.30;11.70;;;4.10;82.20;;;;;;5019820;28;20056;-93
2021/01/04 07:53:39;;;;;;;13.55;11.02;;;4.10;82.40;;;;;;5037363;28;20029;-93
2021/01/04 07:56:05;;;;;;;13.60;10.38;;;4.10;82.40;;;;;;5018892;28;20080;-93
2021/01/04 07:59:23;;;;;;;13.60;10.70;;;4.10;82.40;;;;;;5019057;28;20025;-93
2021/01/04 08:02:11;;;;;;;13.32;10.48;;;4.20;82.40;;;;;;4972640;28;20033;-93
2021/01/04 08:05:04;;;;;;;11.57;9.45;;;4.10;82.30;;;;;;5032757;28;20088;-92
2021/01/04 08:07:47;;;;;;;13.52;10.48;;;4.10;82.30;;;;;;5030296;28;20417;-93
2021/01/04 08:10:25;;;;;;;11.73;9.30;;;4.10;82.40;;;;;;5038733;28;20028;-93
2021/01/04 08:13:18;;;;;;;13.50;10.60;;;4.10;82.30;;;;;;5039192;28;20025;-93
2021/01/04 08:15:59;;;;;;;14.43;11.90;;;4.10;82.40;;;;;;5038921;28;20116;-93
2021/01/04 08:18:25;;;;;;;13.07;10.65;;;4.10;82.60;;;;;;5038332;28;20024;-92
2021/01/04 08:21:25;;;;;;;15.23;12.02;;;4.10;82.50;;;;;;5038369;28;20021;-93
2021/01/04 08:23:56;;;;;;;14.93;11.63;;;4.00;82.60;;;;;;5037924;28;20063;-91
2021/01/04 08:26:31;;;;;;;13.75;11.05;;;4.00;82.60;;;;;;5034779;28;20661;-91
2021/01/04 08:29:05;;;;;;;14.23;10.65;;;4.10;82.70;;;;;;5032978;28;20025;-91
2021/01/04 08:32:05;;;;;;;13.20;10.65;;;4.10;82.70;;;;;;5034121;28;20025;-91
2021/01/04 08:34:39;;;;;;;13.20;10.50;;;4.10;82.70;;;;;;5026335;28;20087;-93
2021/01/04 08:37:05;;;;;;;13.38;11.20;;;4.10;82.70;;;;;;5023851;28;20056;-92
2021/01/04 08:39:40;;;;;;;13.93;11.30;;;4.10;82.70;;;;;;5011225;28;20045;-92
2021/01/04 08:42:17;;;;;;;13.70;11.30;;;4.10;82.70;;;;;;5021002;28;20029;-91
2021/01/04 08:44:56;;;;;;;13.57;10.85;;;4.10;82.80;;;;;;5017792;28;20017;-91
2021/01/04 08:47:38;;;;;;;14.20;11.50;;;4.10;82.70;;;;;;5035380;28;20078;-91
2021/01/04 08:50:14;;;;;;;14.60;11.25;;;4.10;82.80;;;;;;5035639;28;20051;-90
2021/01/04 08:52:45;;;;;;;14.88;12.35;;;4.10;82.90;;;;;;5034135;28;20341;-90
2021/01/04 08:55:22;;;;;;;13.20;10.35;;;4.10;82.90;;;;;;5034462;28;20022;-89
2021/01/04 08:57:49;;;;;;;12.93;10.30;;;4.10;82.90;;;;;;5018023;28;20032;-89
2021/01/04 09:00:26;;;;;;;13.63;10.95;;;4.10;82.90;;;;;;5001402;28;20128;-91
2021/01/04 09:12:53;;;;;;;14.13;11.00;;;4.20;82.70;;;;;;5045858;28;20049;-90
2021/01/04 09:15:19;;;;;;;12.65;10.00;;;4.20;82.60;;;;;;5036076;28;20079;-89
2021/01/04 09:18:10;;;;;;;14.02;10.82;;;4.10;82.50;;;;;;5037120;28;20034;-91
2021/01/04 09:21:01;;;;;;;14.40;11.18;;;4.10;82.60;;;;;;4993127;28;20049;-91
2021/01/04 09:23:29;;;;;;;11.93;9.48;;;4.10;82.60;;;;;;5037385;28;20119;-92
2021/01/04 09:25:55;;;;;;;15.18;11.45;;;4.10;82.60;;;;;;5028686;28;20410;-91
2021/01/04 09:28:23;;;;;;;12.43;10.25;;;4.20;82.60;;;;;;5024918;28;20120;-90
2021/01/04 09:30:50;;;;;;;11.75;9.60;;;4.10;82.70;;;;;;5000937;28;20474;-92
2021/01/04 09:33:21;;;;;;;12.45;10.05;;;4.20;82.70;;;;;;5017655;28;20060;-88
2021/01/04 09:35:48;;;;;;;13.15;10.00;;;4.10;82.60;;;;;;5016566;28;20049;-89
2021/01/04 09:38:24;;;;;;;13.57;10.70;;;4.10;82.60;;;;;;5015976;28;20033;-90
2021/01/04 09:40:53;;;;;;;13.38;10.30;;;4.20;82.60;;;;;;5033167;28;20033;-90
2021/01/04 09:43:24;;;;;;;;;;;4.20;82.60;;;;;;5016602;28;20018;-90
2021/01/04 09:45:52;;;;;;;12.20;10.32;;;4.20;82.60;;;;;;5016191;28;20446;-89
2021/01/04 09:48:31;;;;;;;12.82;10.02;;;4.20;82.60;;;;;;5035264;28;20071;-90
2021/01/04 09:50:59;;;;;;;;;;;4.20;82.60;;;;;;5036488;28;20123;-90
2021/01/04 09:53:30;;;;;;;11.93;9.33;;;4.20;82.50;;;;;;5036095;28;19909;-89
2021/01/04 09:56:00;;;;;;;13.32;10.52;;;4.10;82.60;;;;;;5035957;28;20025;-90
2021/01/04 09:58:26;;;;;;;12.63;10.38;;;4.10;82.60;;;;;;5017186;28;20061;-91
2021/01/04 10:01:11;;;;;;;12.57;8.63;;;4.20;82.60;;;;;;5014177;28;20562;-89
2021/01/04 10:03:38;;;;;;;10.70;8.77;;;4.20;82.60;;;;;;5035449;28;20024;-90
2021/01/04 10:06:09;;;;;;;11.80;9.18;;;4.20;82.60;;;;;;5015528;28;20171;-90
2021/01/04 10:08:37;;;;;;;11.20;8.65;;;4.20;82.50;;;;;;5015468;28;20022;-89
2021/01/04 10:11:06;;;;;;;12.23;9.43;;;4.20;82.40;;;;;;5016189;28;20072;-89
2021/01/04 10:13:35;;;;;;;13.95;10.02;;;4.20;82.40;;;;;;5015435;28;20029;-90
2021/01/04 10:16:05;;;;;;;12.60;9.57;;;4.30;82.50;;;;;;5015737;28;20037;-90
2021/01/04 10:18:54;;;;;;;11.60;9.75;;;4.20;82.40;;;;;;5015177;28;20376;-89
2021/01/04 10:21:30;;;;;;;10.77;9.00;;;4.20;82.40;;;;;;5014135;28;20530;-89
2021/01/04 10:24:04;;;;;;;10.95;8.93;;;4.20;82.40;;;;;;5017325;28;20362;-90
2021/01/04 10:26:40;;;;;;;11.27;8.90;;;4.20;82.40;;;;;;5015679;28;20025;-90
2021/01/04 10:29:08;;;;;;;13.90;10.60;;;4.30;82.40;;;;;;5019646;28;20029;-89
2021/01/04 10:31:35;;;;;;;10.73;8.95;;;4.30;82.20;;;;;;5021384;28;20029;-89
2021/01/04 10:34:08;;;;;;;11.07;9.00;;;4.30;82.20;;;;;;5039475;28;20355;-89
2021/01/04 10:36:35;;;;;;;11.20;8.80;;;4.30;82.20;;;;;;5039042;28;20463;-89
2021/01/04 10:39:19;;;;;;;10.45;9.10;;;4.30;82.70;;;;;;5026441;28;20053;-90
2021/01/04 10:41:45;;;;;;;11.10;8.82;;;4.30;82.00;;;;;;5019388;28;20018;-89
2021/01/04 10:44:24;;;;;;;12.43;9.43;;;4.30;81.90;;;;;;5019537;28;20029;-89
2021/01/04 10:46:55;;;;;;;;;;;4.30;81.80;;;;;;5019448;28;20483;-89
2021/01/04 10:49:33;;;;;;;10.02;7.85;;;4.30;81.80;;;;;;5037153;28;19972;-89
2021/01/04 10:51:59;;;;;;;9.48;7.60;;;4.30;81.80;;;;;;5039019;28;20033;-89
2021/01/04 10:54:39;;;;;;;10.32;8.30;;;4.30;81.80;;;;;;5020930;28;20124;-88
2021/01/04 10:57:28;;;;;;;9.38;7.72;;;4.30;81.80;;;;;;5019161;28;20021;-90
2021/01/04 10:59:57;;;;;;;;;;;4.30;81.80;;;;;;5028523;28;20063;-90
2021/01/04 11:02:23;;;;;;;11.30;7.90;;;4.30;81.70;;;;;;5023472;28;19909;-90
2021/01/04 11:04:55;;;;;;;11.23;8.70;;;4.30;81.70;;;;;;5011569;28;20096;-89
2021/01/04 11:07:31;;;;;;;10.48;8.32;;;4.30;81.80;;;;;;5039086;28;20021;-90
2021/01/04 11:10:17;;;;;;;8.95;7.65;;;4.30;81.80;;;;;;5038588;28;20021;-89
2021/01/04 11:12:50;;;;;;;9.13;7.57;;;4.30;82.40;;;;;;5038524;28;20029;-89
2021/01/04 11:15:28;;;;;;;9.35;7.85;;;4.30;81.70;;;;;;5038749;28;20037;-89
2021/01/04 11:18:06;;;;;;;10.52;8.00;;;4.30;81.80;;;;;;5018652;28;20032;-87
2021/01/04 11:20:34;;;;;;;11.02;8.57;;;4.30;81.80;;;;;;5025199;28;20450;-90
2021/01/04 11:23:05;;;;;;;8.88;7.22;;;4.30;81.80;;;;;;5026691;28;20030;-90
2021/01/04 11:25:31;;;;;;;8.88;7.18;;;4.30;81.80;;;;;;5018788;28;20028;-90
2021/01/04 11:27:57;;;;;;;10.70;8.15;;;4.30;81.80;;;;;;5002398;28;20356;-89
2021/01/04 11:30:23;;;;;;;10.70;8.45;;;4.30;81.90;;;;;;5018618;28;20475;-89
2021/01/04 11:32:49;;;;;;;10.93;8.57;;;4.30;81.80;;;;;;5035816;28;20032;-89
2021/01/04 11:35:15;;;;;;;11.45;9.35;;;4.30;81.90;;;;;;5002093;28;20026;-89
2021/01/04 11:37:40;;;;;;;10.05;8.20;;;4.30;81.90;;;;;;5001539;28;20029;-89
2021/01/04 11:40:09;;;;;;;10.85;8.52;;;4.30;82.00;;;;;;5001132;28;20096;-89
2021/01/04 11:42:34;;;;;;;11.18;9.05;;;4.30;82.00;;;;;;5018103;28;20079;-90
2021/01/04 11:45:08;;;;;;;9.90;7.85;;;4.30;82.10;;;;;;5018189;28;20021;-87
2021/01/04 11:47:35;;;;;;;9.75;7.20;;;4.40;82.20;;;;;;5027239;28;20339;-87
2021/01/04 11:50:02;;;;;;;11.63;9.20;;;4.40;82.10;;;;;;5038256;28;20525;-85
2021/01/04 11:52:27;;;;;;;11.43;8.73;;;4.40;82.20;;;;;;5021316;28;20079;-85
2021/01/04 11:54:53;;;;;;;12.90;9.02;;;4.40;82.20;;;;;;5037400;28;20429;-87
2021/01/04 11:57:19;;;;;;;12.85;8.77;;;4.40;82.20;;;;;;5037817;28;20491;-87
2021/01/04 11:59:47;;;;;;;11.05;8.25;;;4.40;82.20;;;;;;5021135;28;20040;-90
2021/01/04 12:02:12;;;;;;;11.13;9.00;;;4.40;82.20;;;;;;5037536;28;20021;-88
2021/01/04 12:04:38;;;;;;;12.02;9.05;;;4.40;82.70;;;;;;5020923;28;20033;-88
2021/01/04 12:07:04;;;;;;;13.35;10.63;;;4.40;82.20;;;;;;5021365;28;20390;-88
2021/01/04 12:09:29;;;;;;;10.82;8.48;;;4.40;82.10;;;;;;5027359;28;20029;-88
2021/01/04 12:11:55;;;;;;;11.80;8.77;;;4.50;82.10;;;;;;4984904;28;20037;-89
2021/01/04 12:14:21;;;;;;;11.07;9.07;;;4.50;82.10;;;;;;4995943;28;20073;-88
2021/01/04 12:16:47;;;;;;;11.73;9.05;;;4.50;82.10;;;;;;5018222;28;20045;-88
2021/01/04 12:19:13;;;;;;;12.57;9.77;;;4.50;82.00;;;;;;5036199;28;20528;-88
2021/01/04 12:21:39;;;;;;;11.90;9.32;;;4.60;82.10;;;;;;5019167;28;20489;-87
2021/01/04 12:24:08;;;;;;;13.25;10.15;;;4.60;82.00;;;;;;5036505;28;20079;-89
2021/01/04 12:26:34;;;;;;;13.20;10.75;;;4.60;82.00;;;;;;5036377;28;20024;-88
2021/01/04 12:28:59;;;;;;;11.63;9.38;;;4.60;82.00;;;;;;5003886;28;20029;-88
2021/01/04 12:31:25;;;;;;;14.13;10.68;;;4.60;81.90;;;;;;5020137;28;20043;-88
2021/01/04 12:33:51;;;;;;;11.77;9.95;;;4.60;81.80;;;;;;5019626;28;20033;-88
2021/01/04 12:36:26;;;;;;;14.27;10.93;;;4.60;81.70;;;;;;5003635;28;20032;-85
2021/01/04 12:38:52;;;;;;;16.88;12.32;;;4.60;81.70;;;;;;5045934;23;20049;-86
2021/01/04 12:41:18;;;;;;;15.45;11.50;;;4.60;81.70;;;;;;5016019;28;20021;-86
2021/01/04 12:43:46;;;;;;;14.77;10.65;;;4.60;81.60;;;;;;5033316;28;20509;-89
2021/01/04 12:46:13;;;;;;;14.45;11.55;;;4.60;81.60;;;;;;5032597;28;20022;-90
2021/01/04 12:48:40;;;;;;;13.32;10.57;;;4.60;81.60;;;;;;5014739;28;20033;-83
2021/01/04 12:51:07;;;;;;;13.45;10.90;;;4.60;81.60;;;;;;5032634;28;20021;-83
2021/01/04 12:53:33;;;;;;;14.77;10.30;;;4.60;81.50;;;;;;5031440;28;20028;-83
2021/01/04 12:55:59;;;;;;;13.48;10.60;;;4.70;81.50;;;;;;5032743;28;20021;-83
2021/01/04 12:58:25;;;;;;;15.65;11.15;;;4.70;81.50;;;;;;4998520;28;20061;-82
2021/01/04 13:00:52;;;;;;;15.15;11.30;;;4.70;81.60;;;;;;4998292;28;20036;-83
2021/01/04 13:03:18;;;;;;;15.25;11.80;;;4.70;81.50;;;;;;5015231;28;20029;-83
2021/01/04 13:05:44;;;;;;;17.63;11.98;;;4.70;81.50;;;;;;5030876;28;20040;-83
2021/01/04 13:08:09;;;;;;;15.43;11.68;;;4.70;81.40;;;;;;5031164;28;20030;-83
2021/01/04 13:10:35;;;;;;;15.13;11.45;;;4.70;81.30;;;;;;5014329;28;20026;-83
2021/01/04 13:13:01;;;;;;;16.52;12.50;;;4.70;81.40;;;;;;5032465;28;20434;-83
2021/01/04 13:15:26;;;;;;;16.58;12.85;;;4.70;81.40;;;;;;4998490;28;20057;-82
2021/01/04 13:17:52;;;;;;;16.25;12.32;;;4.70;81.40;;;;;;5030818;28;20022;-82
2021/01/04 13:20:18;;;;;;;16.23;12.35;;;4.70;81.60;;;;;;4998340;28;20053;-82
2021/01/04 13:22:43;;;;;;;15.77;11.10;;;4.70;81.60;;;;;;5030644;28;20048;-83
2021/01/04 13:25:10;;;;;;;15.10;10.95;;;4.70;81.60;;;;;;5014476;28;20559;-83
2021/01/04 13:27:36;;;;;;;15.00;11.07;;;4.80;81.70;;;;;;5030669;28;20108;-90
2021/01/04 13:30:04;;;;;;;13.70;10.50;;;4.70;81.70;;;;;;5032275;28;20053;-89
2021/01/04 13:32:30;;;;;;;14.45;10.32;;;4.80;81.70;;;;;;5031765;28;20108;-89
2021/01/04 13:34:55;;;;;;;15.77;11.02;;;4.80;81.70;;;;;;5015153;28;20554;-90
2021/01/04 13:37:21;;;;;;;14.60;11.25;;;4.80;81.70;;;;;;5032178;28;20084;-90
2021/01/04 13:39:47;;;;;;;13.52;10.63;;;4.80;81.70;;;;;;5015119;28;20076;-89
2021/01/04 13:42:14;;;;;;;14.50;10.73;;;4.90;81.80;;;;;;5031934;28;20094;-89